RYR9MJ LEMH-EGCC
Flight info
| Callsign | RYR9MJ |
|---|---|
| Flight time | 2h 13m |
| Altitude | 36000 |
| Route | MEROS N853 LUMAS DCT SOFFY DCT MRM DCT MTL DCT ETREK DCT MADOT DCT MOPEM DCT CACHI DCT AVLON DCT OKRIX DCT BRY DCT CLM DCT KOPOR DCT VESAN DCT RATUK DCT SOVAT L613 SANDY UN57 WELIN T420 ELVOS |
| Aircraft | B738/M-SDE3FGILRWY/SB1 |
Departure
| Time | 2026-04-24 12:32 |
|---|---|
| Airport | Menorca Airport (LEMH) |
Arrival
| Time | 2026-04-24 14:45 |
|---|---|
| Airport | Manchester Airport (EGCC) |
| Time | Latitude | Longitude | Altitude | Speed | Heading |
|---|---|---|---|---|---|
| 2026-04-24 11:57 | 39.86425 | 4.22392 | 285 ft | 0 kts | 98° |
| 2026-04-24 12:25 | 39.86425 | 4.22389 | 285 ft | 3 kts | 98° |
| 2026-04-24 12:25 | 39.86427 | 4.22356 | 289 ft | 4 kts | 86° |
| 2026-04-24 12:25 | 39.86422 | 4.22322 | 292 ft | 4 kts | 58° |
| 2026-04-24 12:25 | 39.86407 | 4.22304 | 293 ft | 1 kts | 9° |
| 2026-04-24 12:26 | 39.86406 | 4.22304 | 293 ft | 1 kts | 9° |
| 2026-04-24 12:28 | 39.86428 | 4.22308 | 294 ft | 6 kts | 9° |
| 2026-04-24 12:29 | 39.86485 | 4.22320 | 287 ft | 11 kts | 9° |
| 2026-04-24 12:29 | 39.86541 | 4.22245 | 294 ft | 16 kts | 277° |
| 2026-04-24 12:29 | 39.86619 | 4.22177 | 294 ft | 18 kts | 10° |
| 2026-04-24 12:29 | 39.86767 | 4.22208 | 297 ft | 24 kts | 9° |
| 2026-04-24 12:30 | 39.86944 | 4.22244 | 299 ft | 25 kts | 9° |
| 2026-04-24 12:30 | 39.87113 | 4.22279 | 305 ft | 24 kts | 9° |
| 2026-04-24 12:30 | 39.87264 | 4.22310 | 308 ft | 20 kts | 9° |
| 2026-04-24 12:30 | 39.87378 | 4.22308 | 311 ft | 15 kts | 315° |
| 2026-04-24 12:31 | 39.87388 | 4.22174 | 309 ft | 15 kts | 254° |
| 2026-04-24 12:31 | 39.87327 | 4.22080 | 308 ft | 15 kts | 187° |
| 2026-04-24 12:31 | 39.87174 | 4.22053 | 308 ft | 45 kts | 188° |
| 2026-04-24 12:31 | 39.86618 | 4.21942 | 303 ft | 115 kts | 189° |
| 2026-04-24 12:32 | 39.85652 | 4.21741 | 452 ft | 158 kts | 188° |
| 2026-04-24 12:32 | 39.84562 | 4.21462 | 1128 ft | 163 kts | 187° |
| 2026-04-24 12:32 | 39.83386 | 4.21210 | 1793 ft | 179 kts | 185° |
| 2026-04-24 12:32 | 39.82085 | 4.20948 | 2326 ft | 204 kts | 185° |
| 2026-04-24 12:33 | 39.80592 | 4.20645 | 2546 ft | 228 kts | 186° |
| 2026-04-24 12:33 | 39.78989 | 4.20309 | 3051 ft | 238 kts | 186° |
| 2026-04-24 12:33 | 39.77334 | 4.20071 | 3647 ft | 240 kts | 171° |
| 2026-04-24 12:33 | 39.75830 | 4.20925 | 4229 ft | 240 kts | 135° |
| 2026-04-24 12:34 | 39.74955 | 4.22756 | 4790 ft | 245 kts | 103° |
| 2026-04-24 12:34 | 39.74909 | 4.24947 | 5435 ft | 243 kts | 79° |
| 2026-04-24 12:34 | 39.75411 | 4.27054 | 6104 ft | 244 kts | 64° |
| 2026-04-24 12:34 | 39.76176 | 4.29048 | 6721 ft | 249 kts | 58° |
| 2026-04-24 12:35 | 39.77135 | 4.30929 | 7367 ft | 250 kts | 49° |
| 2026-04-24 12:35 | 39.78295 | 4.32607 | 8016 ft | 250 kts | 40° |
| 2026-04-24 12:35 | 39.79646 | 4.34056 | 8578 ft | 255 kts | 31° |
| 2026-04-24 12:35 | 39.81166 | 4.35237 | 9229 ft | 255 kts | 23° |
| 2026-04-24 12:36 | 39.82829 | 4.36121 | 9755 ft | 268 kts | 15° |
| 2026-04-24 12:36 | 39.84684 | 4.36678 | 10249 ft | 278 kts | 6° |
| 2026-04-24 12:36 | 39.86657 | 4.36847 | 10639 ft | 296 kts | 357° |
| 2026-04-24 12:36 | 39.88777 | 4.36530 | 10846 ft | 318 kts | 347° |
| 2026-04-24 12:37 | 39.90934 | 4.35663 | 11293 ft | 330 kts | 337° |
| 2026-04-24 12:37 | 39.92987 | 4.34247 | 11901 ft | 337 kts | 326° |
| 2026-04-24 12:37 | 39.94792 | 4.32291 | 12721 ft | 338 kts | 315° |
| 2026-04-24 12:37 | 39.96274 | 4.29880 | 13406 ft | 346 kts | 303° |
| 2026-04-24 12:38 | 39.97577 | 4.27232 | 14082 ft | 349 kts | 313° |
| 2026-04-24 12:38 | 39.99510 | 4.25347 | 14718 ft | 350 kts | 336° |
| 2026-04-24 12:38 | 40.01854 | 4.24469 | 15414 ft | 353 kts | 352° |
| 2026-04-24 12:39 | 40.09271 | 4.25748 | 17289 ft | 367 kts | 11° |
| 2026-04-24 12:39 | 40.11748 | 4.26443 | 17913 ft | 371 kts | 11° |
| 2026-04-24 12:39 | 40.14279 | 4.27147 | 18535 ft | 374 kts | 11° |
| 2026-04-24 12:40 | 40.16836 | 4.27847 | 19084 ft | 377 kts | 11° |
| 2026-04-24 12:40 | 40.19414 | 4.28541 | 19660 ft | 379 kts | 11° |
| 2026-04-24 12:40 | 40.22006 | 4.29232 | 20217 ft | 382 kts | 10° |
| 2026-04-24 12:40 | 40.24618 | 4.29925 | 20760 ft | 385 kts | 10° |
| 2026-04-24 12:41 | 40.27251 | 4.30621 | 21287 ft | 388 kts | 10° |
| 2026-04-24 12:41 | 40.29909 | 4.31324 | 21805 ft | 391 kts | 10° |
| 2026-04-24 12:41 | 40.32583 | 4.32032 | 22323 ft | 394 kts | 10° |
| 2026-04-24 12:41 | 40.35276 | 4.32745 | 22818 ft | 396 kts | 9° |
| 2026-04-24 12:42 | 40.37989 | 4.33464 | 23325 ft | 399 kts | 9° |
| 2026-04-24 12:42 | 40.40723 | 4.34190 | 23825 ft | 402 kts | 9° |
| 2026-04-24 12:42 | 40.43465 | 4.34919 | 24266 ft | 403 kts | 9° |
| 2026-04-24 12:42 | 40.46221 | 4.35651 | 24683 ft | 405 kts | 9° |
| 2026-04-24 12:43 | 40.48995 | 4.36389 | 25074 ft | 408 kts | 9° |
| 2026-04-24 12:43 | 40.51788 | 4.37114 | 25465 ft | 410 kts | 9° |
| 2026-04-24 12:43 | 40.54604 | 4.37796 | 25848 ft | 413 kts | 8° |
| 2026-04-24 12:43 | 40.57437 | 4.38463 | 26226 ft | 415 kts | 8° |
| 2026-04-24 12:44 | 40.60289 | 4.39131 | 26593 ft | 417 kts | 8° |
| 2026-04-24 12:44 | 40.63156 | 4.39806 | 26955 ft | 420 kts | 8° |
| 2026-04-24 12:44 | 40.66039 | 4.40491 | 27315 ft | 422 kts | 8° |
| 2026-04-24 12:44 | 40.68936 | 4.41183 | 27664 ft | 424 kts | 8° |
| 2026-04-24 12:45 | 40.71849 | 4.41881 | 28010 ft | 427 kts | 8° |
| 2026-04-24 12:45 | 40.74779 | 4.42585 | 28340 ft | 429 kts | 8° |
| 2026-04-24 12:45 | 40.77722 | 4.43293 | 28667 ft | 431 kts | 8° |
| 2026-04-24 12:45 | 40.80682 | 4.44005 | 28991 ft | 433 kts | 8° |
| 2026-04-24 12:46 | 40.82650 | 4.44479 | 29208 ft | 435 kts | 8° |
| 2026-04-24 12:46 | 40.85632 | 4.45198 | 29532 ft | 436 kts | 8° |
| 2026-04-24 12:46 | 40.88622 | 4.45919 | 29916 ft | 437 kts | 8° |
| 2026-04-24 12:46 | 40.91602 | 4.46639 | 30368 ft | 435 kts | 8° |
| 2026-04-24 12:47 | 40.95570 | 4.47601 | 30909 ft | 432 kts | 8° |
| 2026-04-24 12:47 | 40.97528 | 4.48076 | 31151 ft | 431 kts | 8° |
| 2026-04-24 12:47 | 41.00480 | 4.48793 | 31482 ft | 431 kts | 8° |
| 2026-04-24 12:47 | 41.03427 | 4.49509 | 31832 ft | 430 kts | 8° |
| 2026-04-24 12:48 | 41.06365 | 4.50223 | 32216 ft | 428 kts | 8° |
| 2026-04-24 12:48 | 41.09291 | 4.50935 | 32597 ft | 427 kts | 8° |
| 2026-04-24 12:48 | 41.12210 | 4.51645 | 32928 ft | 426 kts | 8° |
| 2026-04-24 12:48 | 41.15126 | 4.52355 | 33244 ft | 426 kts | 8° |
| 2026-04-24 12:49 | 41.18037 | 4.53064 | 33589 ft | 425 kts | 8° |
| 2026-04-24 12:49 | 41.20940 | 4.53773 | 33930 ft | 423 kts | 8° |
| 2026-04-24 12:49 | 41.23835 | 4.54480 | 34246 ft | 423 kts | 8° |
| 2026-04-24 12:49 | 41.26726 | 4.55186 | 34505 ft | 423 kts | 9° |
| 2026-04-24 12:50 | 41.29620 | 4.55894 | 34735 ft | 423 kts | 9° |
| 2026-04-24 12:50 | 41.32512 | 4.56602 | 34979 ft | 422 kts | 9° |
| 2026-04-24 12:50 | 41.35402 | 4.57310 | 35221 ft | 422 kts | 9° |
| 2026-04-24 12:50 | 41.38279 | 4.58017 | 35583 ft | 419 kts | 9° |
| 2026-04-24 12:51 | 41.41138 | 4.58720 | 35878 ft | 417 kts | 9° |
| 2026-04-24 12:51 | 41.43996 | 4.59421 | 36065 ft | 418 kts | 9° |
| 2026-04-24 12:51 | 41.46863 | 4.60126 | 36162 ft | 421 kts | 9° |
| 2026-04-24 12:52 | 41.52644 | 4.61550 | 36171 ft | 423 kts | 9° |
| 2026-04-24 12:52 | 41.58401 | 4.62971 | 36164 ft | 421 kts | 9° |
| 2026-04-24 12:53 | 41.64225 | 4.64411 | 36180 ft | 430 kts | 9° |
| 2026-04-24 12:53 | 41.70140 | 4.65875 | 36183 ft | 439 kts | 9° |
| 2026-04-24 12:54 | 41.76155 | 4.67648 | 36172 ft | 445 kts | 14° |
| 2026-04-24 12:54 | 41.82117 | 4.69999 | 36168 ft | 448 kts | 15° |
| 2026-04-24 12:55 | 41.88090 | 4.72413 | 36167 ft | 449 kts | 15° |
| 2026-04-24 12:55 | 41.94070 | 4.74797 | 36168 ft | 448 kts | 15° |
| 2026-04-24 12:56 | 42.00046 | 4.77156 | 36168 ft | 447 kts | 15° |
| 2026-04-24 12:56 | 42.06005 | 4.79506 | 36170 ft | 446 kts | 15° |
| 2026-04-24 12:57 | 42.11943 | 4.81853 | 36174 ft | 444 kts | 15° |
| 2026-04-24 12:57 | 42.17873 | 4.84201 | 36170 ft | 444 kts | 15° |
| 2026-04-24 12:58 | 42.23791 | 4.86550 | 36169 ft | 443 kts | 15° |
| 2026-04-24 12:58 | 42.29703 | 4.88901 | 36173 ft | 443 kts | 15° |
| 2026-04-24 12:59 | 42.35610 | 4.91255 | 36171 ft | 443 kts | 15° |
| 2026-04-24 12:59 | 42.41516 | 4.93613 | 36172 ft | 443 kts | 15° |
| 2026-04-24 13:00 | 42.47425 | 4.95975 | 36171 ft | 444 kts | 16° |
| 2026-04-24 13:00 | 42.53382 | 4.98363 | 36175 ft | 450 kts | 17° |
| 2026-04-24 13:01 | 42.59421 | 5.00790 | 36180 ft | 455 kts | 17° |
| 2026-04-24 13:01 | 42.65519 | 5.03245 | 36176 ft | 458 kts | 17° |
| 2026-04-24 13:02 | 42.71596 | 5.05696 | 36161 ft | 452 kts | 17° |
| 2026-04-24 13:02 | 42.77602 | 5.08123 | 36163 ft | 449 kts | 17° |
| 2026-04-24 13:03 | 42.83579 | 5.10543 | 36168 ft | 448 kts | 17° |
| 2026-04-24 13:03 | 42.89551 | 5.12967 | 36170 ft | 448 kts | 17° |
| 2026-04-24 13:04 | 42.95523 | 5.15395 | 36168 ft | 448 kts | 17° |
| 2026-04-24 13:04 | 43.01602 | 5.17279 | 36169 ft | 450 kts | 4° |
| 2026-04-24 13:05 | 43.07840 | 5.16760 | 36172 ft | 452 kts | 351° |
| 2026-04-24 13:05 | 43.13983 | 5.15134 | 36157 ft | 454 kts | 349° |
| 2026-04-24 13:06 | 43.20193 | 5.13460 | 36162 ft | 455 kts | 350° |
| 2026-04-24 13:06 | 43.26429 | 5.11828 | 36158 ft | 457 kts | 350° |
| 2026-04-24 13:07 | 43.32679 | 5.10218 | 36149 ft | 458 kts | 350° |
| 2026-04-24 13:07 | 43.38952 | 5.08607 | 36161 ft | 459 kts | 351° |
| 2026-04-24 13:08 | 43.45232 | 5.06988 | 36148 ft | 459 kts | 351° |
| 2026-04-24 13:08 | 43.51514 | 5.05365 | 36157 ft | 459 kts | 351° |
| 2026-04-24 13:09 | 43.60952 | 5.02920 | 36132 ft | 460 kts | 350° |
| 2026-04-24 13:09 | 43.67250 | 5.01285 | 36136 ft | 461 kts | 351° |
| 2026-04-24 13:10 | 43.73557 | 4.99645 | 36132 ft | 462 kts | 350° |
| 2026-04-24 13:10 | 43.79882 | 4.97994 | 36139 ft | 463 kts | 351° |
| 2026-04-24 13:11 | 43.86225 | 4.96337 | 36131 ft | 464 kts | 351° |
| 2026-04-24 13:11 | 43.92573 | 4.94675 | 36143 ft | 462 kts | 349° |
| 2026-04-24 13:12 | 43.98839 | 4.93029 | 36121 ft | 454 kts | 350° |
| 2026-04-24 13:12 | 44.05027 | 4.91399 | 36128 ft | 451 kts | 350° |
| 2026-04-24 13:13 | 44.11179 | 4.89776 | 36125 ft | 450 kts | 350° |
| 2026-04-24 13:13 | 44.17356 | 4.88144 | 36139 ft | 455 kts | 349° |
| 2026-04-24 13:14 | 44.23591 | 4.86494 | 36140 ft | 462 kts | 349° |
| 2026-04-24 13:14 | 44.29931 | 4.84810 | 36130 ft | 465 kts | 349° |
| 2026-04-24 13:15 | 44.36270 | 4.83124 | 36118 ft | 462 kts | 349° |
| 2026-04-24 13:15 | 44.42571 | 4.81444 | 36123 ft | 460 kts | 349° |
| 2026-04-24 13:16 | 44.48851 | 4.79766 | 36128 ft | 459 kts | 349° |
| 2026-04-24 13:16 | 44.55129 | 4.78085 | 36117 ft | 460 kts | 349° |
| 2026-04-24 13:17 | 44.61451 | 4.76574 | 36142 ft | 462 kts | 351° |
| 2026-04-24 13:17 | 44.67819 | 4.75220 | 36134 ft | 464 kts | 352° |
| 2026-04-24 13:18 | 44.74206 | 4.73842 | 36131 ft | 465 kts | 351° |
| 2026-04-24 13:18 | 44.80607 | 4.72427 | 36140 ft | 466 kts | 351° |
| 2026-04-24 13:19 | 44.87016 | 4.70997 | 36130 ft | 467 kts | 351° |
| 2026-04-24 13:19 | 44.93433 | 4.69562 | 36119 ft | 468 kts | 351° |
| 2026-04-24 13:20 | 44.99872 | 4.68121 | 36135 ft | 469 kts | 351° |
| 2026-04-24 13:20 | 45.06328 | 4.66672 | 36136 ft | 470 kts | 351° |
| 2026-04-24 13:21 | 45.12800 | 4.65217 | 36110 ft | 472 kts | 351° |
| 2026-04-24 13:21 | 45.19283 | 4.63756 | 36128 ft | 472 kts | 351° |
| 2026-04-24 13:22 | 45.25774 | 4.62279 | 36141 ft | 470 kts | 350° |
| 2026-04-24 13:22 | 45.32113 | 4.60829 | 36114 ft | 462 kts | 350° |
| 2026-04-24 13:23 | 45.38473 | 4.59370 | 36137 ft | 464 kts | 350° |
| 2026-04-24 13:23 | 45.44863 | 4.57902 | 36137 ft | 466 kts | 350° |
| 2026-04-24 13:24 | 45.51273 | 4.56428 | 36123 ft | 468 kts | 349° |
| 2026-04-24 13:24 | 45.57706 | 4.54944 | 36134 ft | 469 kts | 349° |
| 2026-04-24 13:25 | 45.64155 | 4.53452 | 36135 ft | 470 kts | 350° |
| 2026-04-24 13:25 | 45.70618 | 4.51955 | 36131 ft | 471 kts | 349° |
| 2026-04-24 13:26 | 45.77081 | 4.50333 | 36135 ft | 472 kts | 347° |
| 2026-04-24 13:26 | 45.83514 | 4.48375 | 36131 ft | 473 kts | 346° |
| 2026-04-24 13:27 | 45.89948 | 4.46378 | 36134 ft | 474 kts | 346° |
| 2026-04-24 13:27 | 45.96421 | 4.44410 | 36144 ft | 477 kts | 347° |
| 2026-04-24 13:28 | 46.02924 | 4.42455 | 36136 ft | 478 kts | 347° |
| 2026-04-24 13:28 | 46.09448 | 4.40495 | 36146 ft | 480 kts | 347° |
| 2026-04-24 13:29 | 46.16004 | 4.38519 | 36145 ft | 482 kts | 347° |
| 2026-04-24 13:29 | 46.22577 | 4.36534 | 36138 ft | 483 kts | 346° |
| 2026-04-24 13:30 | 46.29147 | 4.34542 | 36148 ft | 482 kts | 346° |
| 2026-04-24 13:30 | 46.35730 | 4.32541 | 36146 ft | 484 kts | 347° |
| 2026-04-24 13:31 | 46.42338 | 4.30528 | 36139 ft | 486 kts | 347° |
| 2026-04-24 13:31 | 46.48920 | 4.28518 | 36142 ft | 487 kts | 347° |
| 2026-04-24 13:32 | 46.55564 | 4.26484 | 36142 ft | 489 kts | 347° |
| 2026-04-24 13:32 | 46.62223 | 4.24440 | 36145 ft | 490 kts | 347° |
| 2026-04-24 13:33 | 46.68897 | 4.22387 | 36147 ft | 490 kts | 347° |
| 2026-04-24 13:33 | 46.75579 | 4.20326 | 36152 ft | 491 kts | 347° |
| 2026-04-24 13:34 | 46.82261 | 4.18260 | 36144 ft | 491 kts | 347° |
| 2026-04-24 13:34 | 46.88941 | 4.16189 | 36146 ft | 491 kts | 347° |
| 2026-04-24 13:35 | 46.94496 | 4.14462 | 36144 ft | 492 kts | 347° |
| 2026-04-24 13:35 | 47.01192 | 4.12377 | 36154 ft | 492 kts | 347° |
| 2026-04-24 13:36 | 47.07865 | 4.10117 | 36152 ft | 492 kts | 341° |
| 2026-04-24 13:36 | 47.14229 | 4.06459 | 36147 ft | 491 kts | 337° |
| 2026-04-24 13:37 | 47.20517 | 4.02562 | 36146 ft | 490 kts | 337° |
| 2026-04-24 13:37 | 47.26819 | 3.98750 | 36144 ft | 490 kts | 338° |
| 2026-04-24 13:38 | 47.33132 | 3.94996 | 36136 ft | 489 kts | 338° |
| 2026-04-24 13:38 | 47.39452 | 3.91240 | 36151 ft | 490 kts | 338° |
| 2026-04-24 13:39 | 47.45775 | 3.87465 | 36155 ft | 490 kts | 338° |
| 2026-04-24 13:39 | 47.52100 | 3.83676 | 36160 ft | 491 kts | 338° |
| 2026-04-24 13:40 | 47.58432 | 3.79875 | 36152 ft | 491 kts | 338° |
| 2026-04-24 13:40 | 47.64758 | 3.76070 | 36153 ft | 491 kts | 338° |
| 2026-04-24 13:41 | 47.71086 | 3.72254 | 36163 ft | 491 kts | 338° |
| 2026-04-24 13:41 | 47.77414 | 3.68426 | 36160 ft | 491 kts | 338° |
| 2026-04-24 13:42 | 47.83731 | 3.64595 | 36161 ft | 490 kts | 338° |
| 2026-04-24 13:42 | 47.90043 | 3.60756 | 36170 ft | 490 kts | 338° |
| 2026-04-24 13:43 | 47.96350 | 3.56912 | 36158 ft | 490 kts | 337° |
| 2026-04-24 13:43 | 48.02647 | 3.53054 | 36176 ft | 489 kts | 337° |
| 2026-04-24 13:44 | 48.08931 | 3.49186 | 36167 ft | 488 kts | 337° |
| 2026-04-24 13:44 | 48.15205 | 3.45314 | 36174 ft | 488 kts | 337° |
| 2026-04-24 13:45 | 48.21471 | 3.41438 | 36189 ft | 487 kts | 337° |
| 2026-04-24 13:45 | 48.27714 | 3.37566 | 36177 ft | 485 kts | 337° |
| 2026-04-24 13:46 | 48.33935 | 3.33698 | 36175 ft | 483 kts | 337° |
| 2026-04-24 13:46 | 48.40136 | 3.29833 | 36174 ft | 482 kts | 336° |
| 2026-04-24 13:47 | 48.46314 | 3.25928 | 36184 ft | 481 kts | 336° |
| 2026-04-24 13:47 | 48.52469 | 3.21988 | 36194 ft | 480 kts | 336° |
| 2026-04-24 13:48 | 48.58620 | 3.18043 | 36189 ft | 480 kts | 336° |
| 2026-04-24 13:48 | 48.64765 | 3.14099 | 36195 ft | 480 kts | 335° |
| 2026-04-24 13:49 | 48.70907 | 3.10148 | 36197 ft | 479 kts | 335° |
| 2026-04-24 13:49 | 48.77001 | 3.06216 | 36196 ft | 479 kts | 335° |
| 2026-04-24 13:50 | 48.83132 | 3.02252 | 36206 ft | 479 kts | 336° |
| 2026-04-24 13:50 | 48.89051 | 2.97691 | 36215 ft | 476 kts | 329° |
| 2026-04-24 13:51 | 48.94749 | 2.92571 | 36205 ft | 476 kts | 328° |
| 2026-04-24 13:51 | 49.00445 | 2.87445 | 36211 ft | 475 kts | 328° |
| 2026-04-24 13:52 | 49.06162 | 2.82384 | 36216 ft | 475 kts | 328° |
| 2026-04-24 13:52 | 49.11878 | 2.77351 | 36209 ft | 474 kts | 328° |
| 2026-04-24 13:53 | 49.17586 | 2.72314 | 36214 ft | 473 kts | 328° |
| 2026-04-24 13:53 | 49.23281 | 2.67272 | 36222 ft | 473 kts | 328° |
| 2026-04-24 13:54 | 49.28968 | 2.62220 | 36231 ft | 472 kts | 328° |
| 2026-04-24 13:54 | 49.34633 | 2.57171 | 36227 ft | 470 kts | 329° |
| 2026-04-24 13:55 | 49.40276 | 2.52132 | 36228 ft | 469 kts | 328° |
| 2026-04-24 13:55 | 49.45912 | 2.47088 | 36230 ft | 468 kts | 328° |
| 2026-04-24 13:56 | 49.51586 | 2.42182 | 36227 ft | 469 kts | 334° |
| 2026-04-24 13:56 | 49.57737 | 2.39047 | 36232 ft | 469 kts | 343° |
| 2026-04-24 13:57 | 49.64008 | 2.36334 | 36232 ft | 468 kts | 342° |
| 2026-04-24 13:57 | 49.70260 | 2.33577 | 36236 ft | 467 kts | 342° |
| 2026-04-24 13:58 | 49.76489 | 2.30757 | 36234 ft | 466 kts | 342° |
| 2026-04-24 13:58 | 49.82697 | 2.27916 | 36230 ft | 465 kts | 341° |
| 2026-04-24 13:59 | 49.88891 | 2.25070 | 36242 ft | 463 kts | 341° |
| 2026-04-24 13:59 | 49.95067 | 2.22224 | 36248 ft | 462 kts | 341° |
| 2026-04-24 14:00 | 50.01232 | 2.19381 | 36246 ft | 462 kts | 341° |
| 2026-04-24 14:00 | 50.07389 | 2.16534 | 36248 ft | 462 kts | 341° |
| 2026-04-24 14:01 | 50.13546 | 2.13679 | 36249 ft | 462 kts | 341° |
| 2026-04-24 14:01 | 50.19700 | 2.10818 | 36253 ft | 462 kts | 341° |
| 2026-04-24 14:02 | 50.25861 | 2.07944 | 36249 ft | 462 kts | 341° |
| 2026-04-24 14:02 | 50.32026 | 2.05063 | 36259 ft | 462 kts | 341° |
| 2026-04-24 14:03 | 50.37927 | 2.01254 | 36265 ft | 458 kts | 326° |
| 2026-04-24 14:03 | 50.42903 | 1.95128 | 36280 ft | 454 kts | 316° |
| 2026-04-24 14:04 | 50.47591 | 1.88565 | 36264 ft | 455 kts | 316° |
| 2026-04-24 14:04 | 50.52368 | 1.81951 | 36268 ft | 455 kts | 316° |
| 2026-04-24 14:05 | 50.57103 | 1.75456 | 36263 ft | 455 kts | 316° |
| 2026-04-24 14:05 | 50.61865 | 1.68917 | 36264 ft | 454 kts | 316° |
| 2026-04-24 14:06 | 50.66619 | 1.62365 | 36291 ft | 454 kts | 316° |
| 2026-04-24 14:06 | 50.71358 | 1.55804 | 36289 ft | 453 kts | 316° |
| 2026-04-24 14:07 | 50.76090 | 1.49237 | 36288 ft | 452 kts | 316° |
| 2026-04-24 14:07 | 50.80813 | 1.42668 | 36298 ft | 452 kts | 316° |
| 2026-04-24 14:08 | 50.85528 | 1.36095 | 36307 ft | 452 kts | 315° |
| 2026-04-24 14:08 | 50.90236 | 1.29515 | 36315 ft | 451 kts | 315° |
| 2026-04-24 14:09 | 50.94930 | 1.22933 | 36318 ft | 450 kts | 315° |
| 2026-04-24 14:09 | 50.99616 | 1.16344 | 36319 ft | 450 kts | 315° |
| 2026-04-24 14:10 | 51.04292 | 1.09753 | 36320 ft | 449 kts | 315° |
| 2026-04-24 14:10 | 51.08918 | 1.03074 | 36323 ft | 449 kts | 313° |
| 2026-04-24 14:11 | 51.13374 | 0.96125 | 36305 ft | 448 kts | 312° |
| 2026-04-24 14:12 | 51.20028 | 0.85650 | 36312 ft | 448 kts | 312° |
| 2026-04-24 14:12 | 51.24481 | 0.78684 | 36303 ft | 448 kts | 313° |
| 2026-04-24 14:13 | 51.28933 | 0.71719 | 36307 ft | 448 kts | 313° |
| 2026-04-24 14:13 | 51.33382 | 0.64741 | 36330 ft | 448 kts | 312° |
| 2026-04-24 14:14 | 51.37794 | 0.57798 | 36323 ft | 448 kts | 312° |
| 2026-04-24 14:14 | 51.44438 | 0.47305 | 36313 ft | 447 kts | 312° |
| 2026-04-24 14:15 | 51.48861 | 0.40294 | 36320 ft | 447 kts | 312° |
| 2026-04-24 14:15 | 51.53273 | 0.33279 | 36301 ft | 446 kts | 312° |
| 2026-04-24 14:16 | 51.57679 | 0.26254 | 36313 ft | 446 kts | 312° |
| 2026-04-24 14:17 | 51.64277 | 0.15698 | 36298 ft | 446 kts | 312° |
| 2026-04-24 14:17 | 51.70804 | 0.05042 | 36289 ft | 445 kts | 311° |
| 2026-04-24 14:18 | 51.75133 | -0.02102 | 36340 ft | 445 kts | 311° |
| 2026-04-24 14:18 | 51.79459 | -0.09249 | 36338 ft | 445 kts | 311° |
| 2026-04-24 14:19 | 51.83782 | -0.16406 | 36301 ft | 444 kts | 311° |
| 2026-04-24 14:19 | 51.85945 | -0.19993 | 36035 ft | 448 kts | 311° |
| 2026-04-24 14:19 | 51.88118 | -0.23603 | 35720 ft | 447 kts | 311° |
| 2026-04-24 14:20 | 51.90281 | -0.27200 | 35264 ft | 444 kts | 311° |
| 2026-04-24 14:20 | 51.92426 | -0.30770 | 34862 ft | 440 kts | 311° |
| 2026-04-24 14:20 | 51.94559 | -0.34328 | 34450 ft | 441 kts | 311° |
| 2026-04-24 14:20 | 51.96692 | -0.37892 | 33993 ft | 441 kts | 310° |
| 2026-04-24 14:21 | 51.98827 | -0.41466 | 33528 ft | 440 kts | 310° |
| 2026-04-24 14:21 | 52.00957 | -0.45036 | 33099 ft | 442 kts | 310° |
| 2026-04-24 14:21 | 52.03099 | -0.48632 | 32661 ft | 443 kts | 310° |
| 2026-04-24 14:21 | 52.05241 | -0.52232 | 32270 ft | 443 kts | 310° |
| 2026-04-24 14:22 | 52.07373 | -0.55819 | 31817 ft | 439 kts | 310° |
| 2026-04-24 14:22 | 52.08769 | -0.58170 | 31537 ft | 435 kts | 310° |
| 2026-04-24 14:22 | 52.12945 | -0.65219 | 30721 ft | 434 kts | 310° |
| 2026-04-24 14:23 | 52.15038 | -0.68764 | 30297 ft | 434 kts | 310° |
| 2026-04-24 14:23 | 52.17119 | -0.72292 | 29814 ft | 430 kts | 310° |
| 2026-04-24 14:23 | 52.19184 | -0.75793 | 29373 ft | 427 kts | 310° |
| 2026-04-24 14:23 | 52.21234 | -0.79277 | 28930 ft | 425 kts | 310° |
| 2026-04-24 14:24 | 52.23277 | -0.82746 | 28471 ft | 424 kts | 311° |
| 2026-04-24 14:24 | 52.25476 | -0.85972 | 28017 ft | 428 kts | 319° |
| 2026-04-24 14:24 | 52.27975 | -0.88644 | 27617 ft | 430 kts | 324° |
| 2026-04-24 14:24 | 52.30549 | -0.91152 | 27180 ft | 432 kts | 326° |
| 2026-04-24 14:25 | 52.33133 | -0.93659 | 26729 ft | 433 kts | 326° |
| 2026-04-24 14:25 | 52.35721 | -0.96191 | 26283 ft | 433 kts | 326° |
| 2026-04-24 14:25 | 52.38303 | -0.98744 | 25854 ft | 434 kts | 326° |
| 2026-04-24 14:25 | 52.40873 | -1.01306 | 25415 ft | 430 kts | 326° |
| 2026-04-24 14:26 | 52.43413 | -1.03849 | 24950 ft | 425 kts | 327° |
| 2026-04-24 14:26 | 52.45930 | -1.06373 | 24485 ft | 424 kts | 327° |
| 2026-04-24 14:26 | 52.48451 | -1.08904 | 24042 ft | 425 kts | 327° |
| 2026-04-24 14:26 | 52.50976 | -1.11442 | 23480 ft | 427 kts | 327° |
| 2026-04-24 14:27 | 52.53505 | -1.13987 | 22997 ft | 425 kts | 328° |
| 2026-04-24 14:27 | 52.56021 | -1.16521 | 22543 ft | 424 kts | 328° |
| 2026-04-24 14:27 | 52.58528 | -1.19050 | 22105 ft | 422 kts | 328° |
| 2026-04-24 14:27 | 52.61024 | -1.21571 | 21688 ft | 420 kts | 328° |
| 2026-04-24 14:28 | 52.63503 | -1.24078 | 21262 ft | 417 kts | 328° |
| 2026-04-24 14:28 | 52.65970 | -1.26575 | 20865 ft | 415 kts | 328° |
| 2026-04-24 14:28 | 52.68417 | -1.29056 | 20460 ft | 412 kts | 328° |
| 2026-04-24 14:28 | 52.70852 | -1.31528 | 20040 ft | 411 kts | 327° |
| 2026-04-24 14:29 | 52.73285 | -1.34003 | 19555 ft | 411 kts | 327° |
| 2026-04-24 14:29 | 52.75703 | -1.36466 | 19156 ft | 406 kts | 327° |
| 2026-04-24 14:29 | 52.78089 | -1.38901 | 18704 ft | 402 kts | 327° |
| 2026-04-24 14:29 | 52.80455 | -1.41318 | 18179 ft | 398 kts | 327° |
| 2026-04-24 14:30 | 52.82795 | -1.43711 | 17676 ft | 393 kts | 327° |
| 2026-04-24 14:30 | 52.85099 | -1.46070 | 17206 ft | 387 kts | 327° |
| 2026-04-24 14:30 | 52.87366 | -1.48396 | 16759 ft | 381 kts | 327° |
| 2026-04-24 14:30 | 52.89606 | -1.50697 | 16312 ft | 377 kts | 327° |
| 2026-04-24 14:31 | 52.91821 | -1.52975 | 15881 ft | 373 kts | 328° |
| 2026-04-24 14:31 | 52.94015 | -1.55235 | 15454 ft | 371 kts | 327° |
| 2026-04-24 14:31 | 52.96203 | -1.57490 | 15024 ft | 370 kts | 327° |
| 2026-04-24 14:31 | 52.98385 | -1.59742 | 14596 ft | 369 kts | 328° |
| 2026-04-24 14:32 | 53.00559 | -1.61987 | 14169 ft | 367 kts | 327° |
| 2026-04-24 14:32 | 53.02724 | -1.64227 | 13699 ft | 366 kts | 327° |
| 2026-04-24 14:32 | 53.04876 | -1.66472 | 13231 ft | 363 kts | 325° |
| 2026-04-24 14:32 | 53.06734 | -1.69252 | 12788 ft | 358 kts | 309° |
| 2026-04-24 14:33 | 53.08288 | -1.72432 | 12373 ft | 352 kts | 308° |
| 2026-04-24 14:33 | 53.09816 | -1.75502 | 11965 ft | 347 kts | 309° |
| 2026-04-24 14:33 | 53.11353 | -1.78526 | 11550 ft | 337 kts | 310° |
| 2026-04-24 14:33 | 53.12877 | -1.81494 | 11163 ft | 328 kts | 310° |
| 2026-04-24 14:34 | 53.14340 | -1.84336 | 10761 ft | 318 kts | 310° |
| 2026-04-24 14:34 | 53.15739 | -1.87054 | 10399 ft | 310 kts | 310° |
| 2026-04-24 14:34 | 53.17134 | -1.89770 | 10039 ft | 308 kts | 310° |
| 2026-04-24 14:34 | 53.18524 | -1.92476 | 9647 ft | 307 kts | 310° |
| 2026-04-24 14:35 | 53.19906 | -1.95174 | 9276 ft | 305 kts | 310° |
| 2026-04-24 14:35 | 53.21278 | -1.97856 | 8904 ft | 303 kts | 310° |
| 2026-04-24 14:35 | 53.22654 | -2.00480 | 8537 ft | 297 kts | 316° |
| 2026-04-24 14:35 | 53.24380 | -2.02237 | 8177 ft | 289 kts | 342° |
| 2026-04-24 14:36 | 53.26325 | -2.02695 | 7832 ft | 279 kts | 2° |
| 2026-04-24 14:36 | 53.28238 | -2.02493 | 7503 ft | 272 kts | 4° |
| 2026-04-24 14:36 | 53.30100 | -2.02232 | 7163 ft | 265 kts | 7° |
| 2026-04-24 14:36 | 53.31865 | -2.01497 | 6840 ft | 259 kts | 18° |
| 2026-04-24 14:37 | 53.33547 | -2.00538 | 6515 ft | 253 kts | 19° |
| 2026-04-24 14:37 | 53.35198 | -1.99601 | 6182 ft | 247 kts | 19° |
| 2026-04-24 14:37 | 53.36801 | -1.98653 | 5901 ft | 242 kts | 23° |
| 2026-04-24 14:37 | 53.38349 | -1.97522 | 5389 ft | 245 kts | 25° |
| 2026-04-24 14:38 | 53.39873 | -1.96311 | 5081 ft | 240 kts | 28° |
| 2026-04-24 14:38 | 53.41335 | -1.95012 | 4826 ft | 237 kts | 28° |
| 2026-04-24 14:38 | 53.42780 | -1.93736 | 4631 ft | 233 kts | 28° |
| 2026-04-24 14:38 | 53.44192 | -1.92493 | 4517 ft | 225 kts | 28° |
| 2026-04-24 14:39 | 53.45623 | -1.91595 | 4380 ft | 219 kts | 10° |
| 2026-04-24 14:39 | 53.47133 | -1.91373 | 4156 ft | 217 kts | 353° |
| 2026-04-24 14:39 | 53.48515 | -1.92255 | 3906 ft | 211 kts | 330° |
| 2026-04-24 14:39 | 53.49712 | -1.93615 | 3664 ft | 206 kts | 313° |
| 2026-04-24 14:40 | 53.50225 | -1.95701 | 3539 ft | 193 kts | 266° |
| 2026-04-24 14:40 | 53.49731 | -1.97710 | 3486 ft | 186 kts | 233° |
| 2026-04-24 14:40 | 53.48972 | -1.99461 | 3463 ft | 185 kts | 233° |
| 2026-04-24 14:40 | 53.48181 | -2.01168 | 3465 ft | 185 kts | 231° |
| 2026-04-24 14:41 | 53.47367 | -2.02861 | 3453 ft | 186 kts | 230° |
| 2026-04-24 14:41 | 53.46547 | -2.04545 | 3429 ft | 187 kts | 230° |
| 2026-04-24 14:41 | 53.45720 | -2.06241 | 3246 ft | 189 kts | 230° |
| 2026-04-24 14:41 | 53.44901 | -2.07924 | 3016 ft | 189 kts | 229° |
| 2026-04-24 14:42 | 53.44051 | -2.09639 | 2763 ft | 187 kts | 228° |
| 2026-04-24 14:42 | 53.43231 | -2.11324 | 2483 ft | 186 kts | 229° |
| 2026-04-24 14:42 | 53.42430 | -2.12992 | 2222 ft | 186 kts | 229° |
| 2026-04-24 14:42 | 53.41624 | -2.14649 | 2010 ft | 183 kts | 229° |
| 2026-04-24 14:43 | 53.40817 | -2.16305 | 1742 ft | 183 kts | 230° |
| 2026-04-24 14:43 | 53.40019 | -2.17949 | 1492 ft | 179 kts | 229° |
| 2026-04-24 14:43 | 53.39260 | -2.19509 | 1291 ft | 165 kts | 229° |
| 2026-04-24 14:43 | 53.38562 | -2.20944 | 1039 ft | 153 kts | 230° |
| 2026-04-24 14:44 | 53.37890 | -2.22326 | 850 ft | 155 kts | 230° |
| 2026-04-24 14:44 | 53.37183 | -2.23758 | 642 ft | 164 kts | 230° |
| 2026-04-24 14:44 | 53.36453 | -2.25238 | 412 ft | 166 kts | 231° |
| 2026-04-24 14:44 | 53.35753 | -2.26717 | 272 ft | 153 kts | 231° |
| 2026-04-24 14:45 | 53.35193 | -2.27873 | 239 ft | 88 kts | 231° |
| 2026-04-24 14:45 | 53.34969 | -2.28439 | 231 ft | 50 kts | 252° |
| 2026-04-24 14:45 | 53.34972 | -2.28748 | 227 ft | 17 kts | 337° |
| 2026-04-24 14:45 | 53.35059 | -2.28652 | 228 ft | 15 kts | 51° |
| 2026-04-24 14:46 | 53.35125 | -2.28521 | 226 ft | 15 kts | 51° |
| 2026-04-24 14:46 | 53.35188 | -2.28390 | 228 ft | 14 kts | 51° |
| 2026-04-24 14:46 | 53.35249 | -2.28264 | 232 ft | 14 kts | 49° |
| 2026-04-24 14:46 | 53.35313 | -2.28152 | 233 ft | 13 kts | 45° |
| 2026-04-24 14:47 | 53.35379 | -2.28045 | 236 ft | 14 kts | 44° |
| 2026-04-24 14:47 | 53.35450 | -2.27931 | 237 ft | 14 kts | 46° |
| 2026-04-24 14:47 | 53.35519 | -2.27819 | 237 ft | 14 kts | 44° |
| 2026-04-24 14:47 | 53.35591 | -2.27702 | 241 ft | 14 kts | 44° |
| 2026-04-24 14:48 | 53.35659 | -2.27587 | 245 ft | 14 kts | 50° |
| 2026-04-24 14:48 | 53.35717 | -2.27468 | 254 ft | 13 kts | 51° |
| 2026-04-24 14:48 | 53.35771 | -2.27350 | 254 ft | 13 kts | 68° |
| 2026-04-24 14:48 | 53.35749 | -2.27214 | 254 ft | 12 kts | 92° |
| 2026-04-24 14:49 | 53.35794 | -2.27097 | 254 ft | 12 kts | 51° |
| 2026-04-24 14:49 | 53.35836 | -2.26978 | 255 ft | 12 kts | 62° |
| 2026-04-24 14:49 | 53.35886 | -2.26868 | 254 ft | 12 kts | 52° |
| 2026-04-24 14:49 | 53.35932 | -2.26757 | 254 ft | 11 kts | 54° |
| 2026-04-24 14:50 | 53.35995 | -2.26747 | 254 ft | 6 kts | 329° |
| 2026-04-24 14:50 | 53.35997 | -2.26789 | 254 ft | 4 kts | 256° |
| 2026-04-24 14:50 | 53.36010 | -2.26843 | 254 ft | 6 kts | 314° |
| 2026-04-24 14:50 | 53.36036 | -2.26885 | 254 ft | 3 kts | 314° |
| 2026-04-24 14:51 | 53.36041 | -2.26893 | 254 ft | 0 kts | 314° |